Etusivu
METAR-TAF:

METAR-TAF

Lentoasemat :

Calvi, Ranska

Leveyspiiri: 42-32N, Pituuspiiri: 008-48E, korkeus merenpinnasta: 64 m

Tämänhetkinen sää

Tämä raportti tehtiin 22 minuuttia sitten, kello 01.00 UTC
Tuuli 1 kn eri suunnista
Lämpötila 10°C
Kosteus 87%
Ilmanpaine 1018 hPa
Näkyvyys 10 km tai enemmän
ei pilviä alle 1500 m:ssä eikä cumulonimbus-pilviä

METAR: LFKC 090100Z AUTO VRB01KT CAVOK 10/08 Q1018

Aika: 03:22 (01:22 UTC)

Sääennuste

Tämä raportti tehtiin 11 tuntia ja 22 minuuttia sitten, kello 14.00 UTC
Ennuste voimassa 08. päivästä klo 15 UTC - 09. päivään klo 15 UTC
Tuuli 10 kn pohjoisesta
Näkyvyys 10 km tai enemmän
ei pilviä alle 1500 m:ssä eikä cumulonimbus-pilviä
Tulossa
08. päivästä klo 17 UTC - 08. päivään klo 19 UTC
Tuuli 3 kn etelästä
Tulossa
09. päivästä klo 07 UTC - 09. päivään klo 09 UTC
Tuuli 10 kn pohjoisesta

TAF: LFKC 081400Z 0815/0915 36010KT CAVOK TX25/0913Z TN12/0904Z BECMG 0817/0819 18003KT BECMG 0907/0909 35010KT

Säähavainnot ja -ennusteet yli 4000 lentoasemalta (METAR- ja TAF-raportit).

Käytössä olevat sääasemat on merkitty karttaan keltaisilla ja punaisilla pisteillä.

Aseta hiiri pisteen päälle nähdäksesi sääaseman nimen.

Klikkaa sitten nähdäksesi säähavainnot ja -ennusteet.

Kartan vaihtaminen: klikkaa mustalla rastilla varustettuja vihreitä pisteitä, niin voit zoomata sisään; viivalla varustettua vihreää pistettä, niin voit zoomata ulos tai vihreitä nuolia, niin pääset viereisille kartoille.


METAR-TAF: